createdAt,value
2019-03-15T00:00:28.462Z,96050.17
2019-03-15T00:01:20.538Z,96039.86
2019-03-15T00:02:13.089Z,96041.78
2019-03-15T00:03:03.616Z,96043.70
2019-03-15T00:03:54.265Z,96043.14
2019-03-15T00:04:44.979Z,96033.62
2019-03-15T00:05:36.076Z,96052.66
2019-03-15T00:06:26.572Z,96044.18
2019-03-15T00:07:17.328Z,96049.06
2019-03-15T00:08:07.823Z,96051.67
2019-03-15T00:08:57.661Z,96048.95
2019-03-15T00:09:48.802Z,96041.35
2019-03-15T00:10:39.261Z,96054.95
2019-03-15T00:11:30.070Z,96044.73
2019-03-15T00:12:19.917Z,96056.67
2019-03-15T00:13:10.706Z,96049.62
2019-03-15T00:14:00.959Z,96060.13
2019-03-15T00:14:51.725Z,96045.81
2019-03-15T00:15:41.809Z,96064.04
2019-03-15T00:16:31.962Z,96053.16
2019-03-15T00:17:25.255Z,96054.20
2019-03-15T00:18:15.665Z,96060.69
2019-03-15T00:19:06.033Z,96064.34
2019-03-15T00:19:56.899Z,96046.91
2019-03-15T00:20:47.282Z,96050.11
2019-03-15T00:21:37.448Z,96060.12
2019-03-15T00:22:27.278Z,96052.09
2019-03-15T00:23:18.132Z,96048.81
2019-03-15T00:24:08.340Z,96052.79
2019-03-15T00:25:00.199Z,96062.09
2019-03-15T00:25:50.098Z,96047.91
2019-03-15T00:26:41.328Z,96037.27
2019-03-15T00:27:31.487Z,96052.79
2019-03-15T00:28:22.000Z,96051.11
2019-03-15T00:29:12.651Z,96054.31
2019-03-15T00:30:03.871Z,96080.47
2019-03-15T00:30:54.107Z,96055.70
2019-03-15T00:31:44.513Z,96058.98
2019-03-15T00:32:34.452Z,96076.34
2019-03-15T00:33:24.686Z,96056.75
2019-03-15T00:34:15.121Z,96085.20
2019-03-15T00:35:06.092Z,96061.63
2019-03-15T00:35:56.486Z,96076.10
2019-03-15T00:36:47.275Z,96061.75
2019-03-15T00:37:38.911Z,96063.45
2019-03-15T00:38:29.346Z,96064.81
2019-03-15T00:39:19.490Z,96064.23
2019-03-15T00:40:12.366Z,96080.55
2019-03-15T00:41:02.971Z,96079.53
2019-03-15T00:41:54.318Z,96070.81
2019-03-15T00:42:44.233Z,96065.13
2019-03-15T00:43:34.251Z,96047.35
2019-03-15T00:44:25.410Z,96080.55
2019-03-15T00:45:15.932Z,96077.83
2019-03-15T00:46:06.314Z,96085.35
2019-03-15T00:46:56.838Z,96087.03
2019-03-15T00:47:47.191Z,96072.07
2019-03-15T00:48:37.492Z,96092.70
2019-03-15T00:49:28.978Z,96087.03
2019-03-15T00:50:19.660Z,96089.98
2019-03-15T00:51:10.066Z,96088.31
2019-03-15T00:52:00.143Z,96091.34
2019-03-15T00:52:50.880Z,96088.77
2019-03-15T00:53:40.880Z,96100.20
2019-03-15T00:54:31.180Z,96098.05
2019-03-15T00:55:22.072Z,96098.05
2019-03-15T00:56:12.120Z,96111.88
2019-03-15T00:57:02.065Z,96118.23
2019-03-15T00:57:52.393Z,96098.77
2019-03-15T00:58:42.502Z,96110.91
2019-03-15T00:59:32.580Z,96107.63
2019-03-15T01:00:26.087Z,96104.11
2019-03-15T01:01:16.455Z,96104.11
2019-03-15T01:02:06.754Z,96115.22
2019-03-15T01:02:57.120Z,96111.14
2019-03-15T01:03:47.436Z,96115.47
2019-03-15T01:04:37.897Z,96096.43
2019-03-15T01:05:28.990Z,96108.11
2019-03-15T01:06:19.115Z,96107.63
2019-03-15T01:07:09.607Z,96102.43
2019-03-15T01:08:01.461Z,96127.15
2019-03-15T01:08:52.352Z,96110.34
2019-03-15T01:09:42.396Z,96111.95
2019-03-15T01:10:32.680Z,96107.63
2019-03-15T01:11:22.721Z,96116.59
2019-03-15T01:12:13.049Z,96140.51
2019-03-15T01:13:03.753Z,96136.19
2019-03-15T01:13:54.525Z,96141.73
2019-03-15T01:14:45.326Z,96132.77
2019-03-15T01:15:37.165Z,96133.89
2019-03-15T01:16:27.386Z,96135.25
2019-03-15T01:17:17.964Z,96130.26
2019-03-15T01:18:08.622Z,96125.17
2019-03-15T01:18:58.858Z,96137.06
2019-03-15T01:19:48.856Z,96121.65
2019-03-15T01:20:39.337Z,96126.60
2019-03-15T01:21:29.671Z,96142.92
2019-03-15T01:22:20.195Z,96136.29
2019-03-15T01:23:10.070Z,96146.37
2019-03-15T01:24:00.317Z,96139.98
2019-03-15T01:24:51.331Z,96133.19
2019-03-15T01:25:41.162Z,96137.48
2019-03-15T01:26:31.691Z,96132.94
2019-03-15T01:27:22.122Z,96118.55
2019-03-15T01:28:12.382Z,96133.50
2019-03-15T01:29:02.817Z,96123.42
2019-03-15T01:29:52.958Z,96131.90
2019-03-15T01:30:43.219Z,96138.45
2019-03-15T01:31:33.880Z,96126.70
2019-03-15T01:32:23.974Z,96127.58
2019-03-15T01:33:16.155Z,96131.34
2019-03-15T01:34:08.095Z,96143.09
2019-03-15T01:34:58.070Z,96123.84
2019-03-15T01:35:48.258Z,96132.31
2019-03-15T01:36:38.377Z,96137.44
2019-03-15T01:37:28.382Z,96136.02
2019-03-15T01:38:19.700Z,96146.55
2019-03-15T01:39:10.168Z,96150.00
2019-03-15T01:40:00.817Z,96147.13
2019-03-15T01:40:50.280Z,96138.59
2019-03-15T01:41:40.603Z,96151.28
2019-03-15T01:42:31.889Z,96130.23
2019-03-15T01:43:21.983Z,96139.53
2019-03-15T01:44:12.051Z,96140.23
2019-03-15T01:45:02.490Z,96140.55
2019-03-15T01:45:53.266Z,96132.88
2019-03-15T01:46:43.224Z,96136.08
2019-03-15T01:47:33.482Z,96123.05
2019-03-15T01:48:24.072Z,96119.45
2019-03-15T01:49:17.971Z,96148.56
2019-03-15T01:50:08.487Z,96150.97
2019-03-15T01:50:59.698Z,96155.12
2019-03-15T01:51:50.151Z,96156.72
2019-03-15T01:52:40.455Z,96155.61
2019-03-15T01:53:31.032Z,96154.95
2019-03-15T01:54:21.859Z,96145.11
2019-03-15T01:55:12.388Z,96160.00
2019-03-15T01:56:04.024Z,96157.52
2019-03-15T01:56:53.821Z,96165.44
2019-03-15T01:57:43.978Z,96140.66
2019-03-15T01:58:34.867Z,96142.02
2019-03-15T01:59:25.362Z,96147.69
2019-03-15T02:00:16.507Z,96156.41
2019-03-15T02:01:10.182Z,96152.58
2019-03-15T02:02:01.029Z,96163.03
2019-03-15T02:02:51.592Z,96167.81
2019-03-15T02:03:42.016Z,96159.09
2019-03-15T02:04:32.603Z,96148.77
2019-03-15T02:05:22.918Z,96153.41
2019-03-15T02:06:14.169Z,96164.30
2019-03-15T02:07:04.412Z,96149.89
2019-03-15T02:07:54.765Z,96161.92
2019-03-15T02:08:44.901Z,96149.89
2019-03-15T02:09:35.675Z,96157.28
2019-03-15T02:10:26.296Z,96162.38
2019-03-15T02:11:16.492Z,96165.09
2019-03-15T02:12:07.711Z,96123.67
2019-03-15T02:12:58.510Z,96152.30
2019-03-15T02:13:48.864Z,96168.86
2019-03-15T02:14:39.488Z,96156.38
2019-03-15T02:15:29.341Z,96166.80
2019-03-15T02:16:19.963Z,96166.21
2019-03-15T02:17:10.215Z,96151.73
2019-03-15T02:18:00.235Z,96166.14
2019-03-15T02:18:51.080Z,96156.94
2019-03-15T02:19:41.606Z,96166.45
2019-03-15T02:20:32.344Z,96158.54
2019-03-15T02:21:22.859Z,96158.86
2019-03-15T02:22:13.043Z,96159.09
2019-03-15T02:23:03.033Z,96163.42
2019-03-15T02:23:53.896Z,96168.06
2019-03-15T02:24:44.422Z,96156.38
2019-03-15T02:25:35.050Z,96166.00
2019-03-15T02:26:25.328Z,96171.89
2019-03-15T02:27:16.442Z,96183.27
2019-03-15T02:28:07.212Z,96169.66
2019-03-15T02:28:58.728Z,96180.44
2019-03-15T02:29:48.925Z,96177.48
2019-03-15T02:30:39.095Z,96174.75
2019-03-15T02:31:29.239Z,96176.11
2019-03-15T02:32:19.294Z,96169.91
2019-03-15T02:33:10.396Z,96181.41
2019-03-15T02:34:00.928Z,96183.27
2019-03-15T02:34:51.663Z,96178.70
2019-03-15T02:35:41.572Z,96184.13
2019-03-15T02:36:31.978Z,96174.86
2019-03-15T02:37:21.850Z,96166.45
2019-03-15T02:38:12.353Z,96178.45
2019-03-15T02:39:03.312Z,96161.43
2019-03-15T02:39:53.238Z,96170.88
2019-03-15T02:40:43.197Z,96182.77
2019-03-15T02:41:33.460Z,96175.41
2019-03-15T02:42:23.829Z,96172.14
2019-03-15T02:43:13.955Z,96178.84
2019-03-15T02:44:03.888Z,96172.03
2019-03-15T02:44:54.572Z,96171.72
2019-03-15T02:45:45.182Z,96161.40
2019-03-15T02:46:35.015Z,96176.60
2019-03-15T02:47:25.434Z,96185.32
2019-03-15T02:48:15.815Z,96178.28
2019-03-15T02:49:05.795Z,96171.72
2019-03-15T02:49:57.004Z,96179.33
2019-03-15T02:50:47.540Z,96176.60
2019-03-15T02:51:38.209Z,96176.50
2019-03-15T02:52:28.199Z,96183.09
2019-03-15T02:53:18.581Z,96175.24
2019-03-15T02:54:09.210Z,96176.60
2019-03-15T02:55:00.015Z,96176.50
2019-03-15T02:55:50.450Z,96175.14
2019-03-15T02:56:42.472Z,96176.28
2019-03-15T02:57:32.693Z,96182.74
2019-03-15T02:58:22.969Z,96184.34
2019-03-15T02:59:13.822Z,96182.74
2019-03-15T03:00:04.828Z,96178.20
2019-03-15T03:00:54.907Z,96192.82
2019-03-15T03:01:45.419Z,96192.51
2019-03-15T03:02:35.751Z,96185.15
2019-03-15T03:03:26.003Z,96175.87
2019-03-15T03:04:16.983Z,96184.66
2019-03-15T03:05:07.975Z,96193.41
2019-03-15T03:05:58.592Z,96191.46
2019-03-15T03:06:49.223Z,96184.45
2019-03-15T03:07:39.259Z,96192.36
2019-03-15T03:08:30.040Z,96186.02
2019-03-15T03:09:19.882Z,96185.70
2019-03-15T03:10:10.856Z,96195.55
2019-03-15T03:11:01.668Z,96191.70
2019-03-15T03:11:51.605Z,96185.00
2019-03-15T03:12:43.986Z,96199.41
2019-03-15T03:13:33.489Z,96203.24
2019-03-15T03:14:24.115Z,96197.14
2019-03-15T03:15:14.621Z,96208.58
2019-03-15T03:16:05.211Z,96189.89
2019-03-15T03:16:55.746Z,96204.50
2019-03-15T03:17:46.483Z,96196.34
2019-03-15T03:18:37.119Z,96206.42
2019-03-15T03:19:28.211Z,96205.41
2019-03-15T03:20:18.011Z,96213.47
2019-03-15T03:21:08.513Z,96205.55
2019-03-15T03:21:58.514Z,96205.65
2019-03-15T03:22:48.712Z,96215.48
2019-03-15T03:23:39.578Z,96203.31
2019-03-15T03:24:30.025Z,96209.94
2019-03-15T03:25:20.735Z,96208.58
2019-03-15T03:26:11.463Z,96204.29
2019-03-15T03:27:03.292Z,96213.81
2019-03-15T03:27:54.075Z,96218.66
2019-03-15T03:28:44.512Z,96210.28
2019-03-15T03:29:35.394Z,96204.84
2019-03-15T03:30:25.315Z,96213.56
2019-03-15T03:31:16.390Z,96197.80
2019-03-15T03:32:07.085Z,96214.13
2019-03-15T03:32:57.560Z,96215.73
2019-03-15T03:33:47.657Z,96209.48
2019-03-15T03:34:40.504Z,96222.28
2019-03-15T03:35:29.254Z,96218.59
2019-03-15T03:36:19.868Z,96224.59
2019-03-15T03:37:09.756Z,96226.51
2019-03-15T03:37:59.884Z,96233.00
2019-03-15T03:38:50.661Z,96231.63
2019-03-15T03:39:41.169Z,96231.88
2019-03-15T03:40:31.834Z,96241.71
2019-03-15T03:41:23.175Z,96225.29
2019-03-15T03:42:12.271Z,96218.84
2019-03-15T03:43:02.737Z,96243.53
2019-03-15T03:43:52.715Z,96237.22
2019-03-15T03:44:42.799Z,96232.65
2019-03-15T03:45:32.827Z,96233.45
2019-03-15T03:46:24.530Z,96246.49
2019-03-15T03:47:15.127Z,96243.78
2019-03-15T03:48:05.489Z,96246.84
2019-03-15T03:48:55.573Z,96243.78
2019-03-15T03:49:45.611Z,96246.98
2019-03-15T03:50:35.785Z,96235.55
2019-03-15T03:51:25.708Z,96240.08
2019-03-15T03:52:16.030Z,96242.56
2019-03-15T03:53:06.321Z,96238.48
2019-03-15T03:53:56.478Z,96238.27
2019-03-15T03:54:46.732Z,96230.31
2019-03-15T03:55:37.417Z,96219.22
2019-03-15T03:56:28.176Z,96236.66
2019-03-15T03:57:18.344Z,96245.38
2019-03-15T03:58:08.969Z,96238.58
2019-03-15T03:58:59.845Z,96248.90
2019-03-15T03:59:50.781Z,96242.34
2019-03-15T04:00:41.125Z,96252.42
2019-03-15T04:01:31.286Z,96242.56
2019-03-15T04:02:22.044Z,96243.70
2019-03-15T04:03:12.453Z,96251.21
2019-03-15T04:04:02.456Z,96246.33
2019-03-15T04:04:53.492Z,96268.19
2019-03-15T04:05:43.966Z,96247.44
2019-03-15T04:06:33.844Z,96248.73
2019-03-15T04:07:24.474Z,96248.59
2019-03-15T04:08:14.931Z,96249.95
2019-03-15T04:09:07.184Z,96258.67
2019-03-15T04:09:57.410Z,96275.55
2019-03-15T04:10:47.507Z,96267.63
2019-03-15T04:11:38.345Z,96260.03
2019-03-15T04:12:28.851Z,96276.01
2019-03-15T04:13:19.211Z,96275.45
2019-03-15T04:14:09.386Z,96272.27
2019-03-15T04:14:59.635Z,96281.23
2019-03-15T04:15:49.724Z,96274.98
2019-03-15T04:16:39.996Z,96295.95
2019-03-15T04:17:30.438Z,96293.79
2019-03-15T04:18:21.315Z,96300.84
2019-03-15T04:19:12.323Z,96295.95
2019-03-15T04:20:03.203Z,96319.63
2019-03-15T04:20:53.449Z,96306.27
2019-03-15T04:21:43.601Z,96307.08
2019-03-15T04:22:33.546Z,96315.80
2019-03-15T04:23:24.271Z,96303.77
2019-03-15T04:24:14.966Z,96317.72
2019-03-15T04:25:07.248Z,96316.91
2019-03-15T04:25:59.108Z,96314.99
2019-03-15T04:26:49.201Z,96315.80
2019-03-15T04:27:40.487Z,96327.55
2019-03-15T04:28:31.288Z,96324.92
2019-03-15T04:29:21.375Z,96324.37
2019-03-15T04:30:12.183Z,96331.38
2019-03-15T04:31:02.855Z,96325.14
2019-03-15T04:31:53.963Z,96321.40
2019-03-15T04:32:44.542Z,96339.08
2019-03-15T04:33:35.815Z,96329.80
2019-03-15T04:34:28.410Z,96342.36
2019-03-15T04:35:16.064Z,96333.16
2019-03-15T04:36:07.240Z,96332.34
2019-03-15T04:36:59.134Z,96332.59
2019-03-15T04:37:48.891Z,96342.67
2019-03-15T04:38:39.737Z,96352.19
2019-03-15T04:39:29.705Z,96348.11
2019-03-15T04:40:20.397Z,96344.38
2019-03-15T04:41:10.913Z,96356.37
2019-03-15T04:42:01.811Z,96360.11
2019-03-15T04:42:51.795Z,96374.05
2019-03-15T04:43:41.999Z,96359.09
2019-03-15T04:44:32.239Z,96359.09
2019-03-15T04:45:22.301Z,96349.32
2019-03-15T04:46:12.941Z,96371.64
2019-03-15T04:47:03.612Z,96377.08
2019-03-15T04:47:53.968Z,96373.55
2019-03-15T04:48:44.294Z,96368.05
2019-03-15T04:49:34.730Z,96365.33
2019-03-15T04:50:25.567Z,96352.59
2019-03-15T04:51:17.040Z,96372.84
2019-03-15T04:52:07.757Z,96372.53
2019-03-15T04:52:58.935Z,96382.92
2019-03-15T04:53:49.576Z,96369.32
2019-03-15T04:54:39.981Z,96373.16
2019-03-15T04:55:30.574Z,96378.34
2019-03-15T04:56:20.907Z,96364.99
2019-03-15T04:57:11.442Z,96366.36
2019-03-15T04:58:01.885Z,96369.97
2019-03-15T04:58:51.969Z,96368.61
2019-03-15T04:59:42.152Z,96370.19
2019-03-15T05:00:33.840Z,96384.59
2019-03-15T05:01:24.879Z,96373.71
2019-03-15T05:02:14.940Z,96376.22
2019-03-15T05:03:05.175Z,96380.85
2019-03-15T05:03:55.321Z,96361.47
2019-03-15T05:04:45.320Z,96374.61
2019-03-15T05:05:35.589Z,96379.15
2019-03-15T05:06:26.661Z,96381.16
2019-03-15T05:07:16.976Z,96378.13
2019-03-15T05:08:07.613Z,96401.80
2019-03-15T05:08:59.065Z,96409.41
2019-03-15T05:09:50.468Z,96392.59
2019-03-15T05:10:40.351Z,96401.55
2019-03-15T05:11:30.995Z,96407.80
2019-03-15T05:12:21.856Z,96393.64
2019-03-15T05:13:11.743Z,96404.28
2019-03-15T05:14:02.280Z,96418.68
2019-03-15T05:14:53.424Z,96419.39
2019-03-15T05:15:44.201Z,96436.27
2019-03-15T05:16:35.067Z,96423.88
2019-03-15T05:17:25.306Z,96432.83
2019-03-15T05:18:15.893Z,96438.77
2019-03-15T05:19:06.265Z,96424.37
2019-03-15T05:19:56.351Z,96433.64
2019-03-15T05:20:46.911Z,96426.75
2019-03-15T05:21:37.421Z,96443.41
2019-03-15T05:22:27.637Z,96444.98
2019-03-15T05:23:18.247Z,96449.65
2019-03-15T05:24:09.572Z,96447.14
2019-03-15T05:24:59.559Z,96443.88
2019-03-15T05:25:50.456Z,96445.78
2019-03-15T05:26:40.993Z,96456.91
2019-03-15T05:27:31.494Z,96448.75
2019-03-15T05:28:22.452Z,96436.11
2019-03-15T05:29:13.232Z,96444.61
2019-03-15T05:30:04.699Z,96451.63
2019-03-15T05:30:55.459Z,96462.76
2019-03-15T05:31:46.151Z,96451.41
2019-03-15T05:32:36.591Z,96455.71
2019-03-15T05:33:27.046Z,96455.41
2019-03-15T05:34:17.747Z,96458.13
2019-03-15T05:35:09.439Z,96452.69
2019-03-15T05:36:00.503Z,96451.88
2019-03-15T05:36:50.561Z,96449.66
2019-03-15T05:37:40.763Z,96456.45
2019-03-15T05:38:30.904Z,96465.98
2019-03-15T05:39:24.209Z,96464.06
2019-03-15T05:40:15.023Z,96456.92
2019-03-15T05:41:05.791Z,96463.72
2019-03-15T05:41:56.843Z,96471.17
2019-03-15T05:42:46.869Z,96458.03
2019-03-15T05:43:37.395Z,96475.97
2019-03-15T05:44:27.661Z,96469.97
2019-03-15T05:45:18.697Z,96473.34
2019-03-15T05:46:09.256Z,96477.08
2019-03-15T05:47:00.175Z,96478.22
2019-03-15T05:47:51.441Z,96479.58
2019-03-15T05:48:42.071Z,96490.45
2019-03-15T05:49:32.126Z,96483.32
2019-03-15T05:50:22.907Z,96478.93
2019-03-15T05:51:13.270Z,96487.95
2019-03-15T05:52:04.064Z,96489.31
2019-03-15T05:52:54.586Z,96500.05
2019-03-15T05:53:45.159Z,96488.36
2019-03-15T05:54:35.561Z,96484.63
2019-03-15T05:55:26.779Z,96497.26
2019-03-15T05:56:16.611Z,96485.83
2019-03-15T05:57:08.056Z,96486.04
2019-03-15T05:57:58.879Z,96481.80
2019-03-15T05:58:48.974Z,96491.57
2019-03-15T05:59:41.221Z,96487.95
2019-03-15T06:00:31.891Z,96489.91
2019-03-15T06:01:23.631Z,96497.26
2019-03-15T06:02:13.958Z,96494.76
2019-03-15T06:03:05.085Z,96492.28
2019-03-15T06:03:55.517Z,96489.31
2019-03-15T06:04:46.009Z,96490.92
2019-03-15T06:05:36.132Z,96483.10
2019-03-15T06:06:26.017Z,96488.60
2019-03-15T06:07:16.917Z,96495.65
2019-03-15T06:08:08.660Z,96494.76
2019-03-15T06:08:59.835Z,96501.80
2019-03-15T06:09:50.221Z,96488.36
2019-03-15T06:10:41.578Z,96491.67
2019-03-15T06:11:33.441Z,96508.36
2019-03-15T06:12:24.202Z,96499.34
2019-03-15T06:13:14.656Z,96491.98
2019-03-15T06:14:05.645Z,96487.59
2019-03-15T06:14:55.559Z,96502.30
2019-03-15T06:15:46.741Z,96507.00
2019-03-15T06:16:37.447Z,96514.73
2019-03-15T06:17:28.726Z,96516.23
2019-03-15T06:18:19.699Z,96516.69
2019-03-15T06:19:10.546Z,96527.14
2019-03-15T06:20:01.143Z,96521.17
2019-03-15T06:20:52.511Z,96534.22
2019-03-15T06:21:42.923Z,96519.27
2019-03-15T06:22:33.365Z,96521.12
2019-03-15T06:23:24.456Z,96516.46
2019-03-15T06:24:14.687Z,96515.27
2019-03-15T06:25:05.870Z,96516.13
2019-03-15T06:25:55.445Z,96518.17
2019-03-15T06:26:45.901Z,96527.38
2019-03-15T06:27:36.246Z,96521.04
2019-03-15T06:28:27.049Z,96527.63
2019-03-15T06:29:17.746Z,96536.92
2019-03-15T06:30:08.583Z,96518.45
2019-03-15T06:30:59.584Z,96539.77
2019-03-15T06:31:50.747Z,96541.13
2019-03-15T06:32:41.307Z,96531.66
2019-03-15T06:33:33.002Z,96537.43
2019-03-15T06:34:23.681Z,96540.95
2019-03-15T06:35:14.610Z,96526.23
2019-03-15T06:36:05.140Z,96531.91
2019-03-15T06:36:55.798Z,96530.00
2019-03-15T06:37:46.332Z,96534.08
2019-03-15T06:38:37.409Z,96540.02
2019-03-15T06:39:27.681Z,96540.74
2019-03-15T06:40:18.332Z,96536.49
2019-03-15T06:41:09.020Z,96549.27
2019-03-15T06:41:59.080Z,96546.81
2019-03-15T06:42:49.623Z,96538.03
2019-03-15T06:43:40.385Z,96543.97
2019-03-15T06:44:31.332Z,96540.95
2019-03-15T06:45:23.724Z,96547.16
2019-03-15T06:46:14.830Z,96543.34
2019-03-15T06:47:05.299Z,96550.63
2019-03-15T06:47:56.044Z,96535.94
2019-03-15T06:48:47.345Z,96545.67
2019-03-15T06:49:37.770Z,96558.95
2019-03-15T06:50:28.267Z,96551.05
2019-03-15T06:51:18.876Z,96562.73
2019-03-15T06:52:10.964Z,96560.82
2019-03-15T06:53:01.478Z,96565.37
2019-03-15T06:53:51.764Z,96564.89
2019-03-15T06:54:42.213Z,96576.99
2019-03-15T06:55:32.907Z,96564.69
2019-03-15T06:56:23.937Z,96577.41
2019-03-15T06:57:15.275Z,96583.61
2019-03-15T06:58:06.722Z,96582.17
2019-03-15T06:58:57.838Z,96585.39
2019-03-15T06:59:48.101Z,96573.90
2019-03-15T07:00:38.225Z,96584.47
2019-03-15T07:01:29.519Z,96577.13
2019-03-15T07:02:20.199Z,96582.47
2019-03-15T07:03:10.943Z,96570.98
2019-03-15T07:04:01.357Z,96574.45
2019-03-15T07:04:52.276Z,96563.16
2019-03-15T07:05:42.659Z,96573.09
2019-03-15T07:06:32.948Z,96566.34
2019-03-15T07:07:23.622Z,96577.64
2019-03-15T07:08:14.131Z,96572.45
2019-03-15T07:09:05.751Z,96576.23
2019-03-15T07:09:56.312Z,96572.33
2019-03-15T07:10:46.281Z,96569.19
2019-03-15T07:11:37.009Z,96579.37
2019-03-15T07:12:27.458Z,96572.45
2019-03-15T07:13:18.938Z,96575.64
2019-03-15T07:14:09.513Z,96575.09
2019-03-15T07:14:59.872Z,96594.28
2019-03-15T07:15:50.512Z,96577.59
2019-03-15T07:16:43.515Z,96590.97
2019-03-15T07:17:34.138Z,96599.84
2019-03-15T07:18:24.428Z,96596.24
2019-03-15T07:19:25.718Z,96589.22
2019-03-15T07:20:07.705Z,96600.91
2019-03-15T07:20:57.683Z,96601.33
2019-03-15T07:21:48.235Z,96603.92
2019-03-15T07:22:38.727Z,96600.70
2019-03-15T07:23:29.380Z,96603.12
2019-03-15T07:24:25.177Z,96610.64
2019-03-15T07:25:10.925Z,96603.37
2019-03-15T07:26:01.967Z,96605.92
2019-03-15T07:26:52.674Z,96606.64
2019-03-15T07:27:43.644Z,96613.86
2019-03-15T07:28:34.149Z,96616.83
2019-03-15T07:29:24.060Z,96626.02
2019-03-15T07:30:15.146Z,96611.06
2019-03-15T07:31:06.240Z,96621.38
2019-03-15T07:31:57.511Z,96617.55
2019-03-15T07:32:47.910Z,96631.45
2019-03-15T07:33:39.236Z,96627.08
2019-03-15T07:34:29.747Z,96624.86
2019-03-15T07:35:20.967Z,96621.00
2019-03-15T07:36:11.179Z,96625.08
2019-03-15T07:37:02.564Z,96626.99
2019-03-15T07:37:52.616Z,96625.33
2019-03-15T07:38:43.268Z,96623.67
2019-03-15T07:39:34.604Z,96627.50
2019-03-15T07:40:24.963Z,96621.42
2019-03-15T07:41:15.018Z,96623.84
2019-03-15T07:42:06.923Z,96625.45
2019-03-15T07:43:02.037Z,96622.17
2019-03-15T07:43:48.549Z,96620.69
2019-03-15T07:44:38.495Z,96621.69
2019-03-15T07:45:28.767Z,96621.61
2019-03-15T07:46:18.978Z,96617.53
2019-03-15T07:47:09.209Z,96622.72
2019-03-15T07:47:59.343Z,96622.91
2019-03-15T07:48:51.924Z,96628.36
2019-03-15T07:49:42.330Z,96621.86
2019-03-15T07:50:32.266Z,96625.64
2019-03-15T07:51:22.803Z,96619.30
2019-03-15T07:52:13.180Z,96617.56
2019-03-15T07:53:03.348Z,96616.95
2019-03-15T07:53:53.431Z,96620.23
2019-03-15T07:54:43.912Z,96624.56
2019-03-15T07:55:34.518Z,96614.95
2019-03-15T07:56:28.527Z,96613.03
2019-03-15T07:57:15.988Z,96617.53
2019-03-15T07:58:07.494Z,96617.42
2019-03-15T07:58:57.066Z,96628.05
2019-03-15T07:59:47.534Z,96622.95
2019-03-15T08:00:38.011Z,96621.03
2019-03-15T08:01:28.634Z,96620.23
2019-03-15T08:02:18.842Z,96616.95
2019-03-15T08:03:10.273Z,96605.82
2019-03-15T08:04:01.186Z,96614.78
2019-03-15T08:04:52.314Z,96611.26
2019-03-15T08:05:42.729Z,96617.56
2019-03-15T08:06:35.169Z,96608.55
2019-03-15T08:07:35.468Z,96628.52
2019-03-15T08:08:14.199Z,96632.91
2019-03-15T08:09:07.027Z,96632.77
2019-03-15T08:09:57.451Z,96624.56
2019-03-15T08:10:47.733Z,96620.95
2019-03-15T08:11:41.929Z,96630.05
2019-03-15T08:12:32.785Z,96630.52
2019-03-15T08:13:23.351Z,96625.97
2019-03-15T08:14:14.064Z,96619.98
2019-03-15T08:15:05.173Z,96622.14
2019-03-15T08:15:55.302Z,96626.39
2019-03-15T08:16:46.274Z,96632.06
2019-03-15T08:17:36.925Z,96630.25
2019-03-15T08:18:27.151Z,96626.93
2019-03-15T08:19:17.458Z,96623.35
2019-03-15T08:20:09.285Z,96637.81
2019-03-15T08:20:59.986Z,96628.48
2019-03-15T08:21:50.990Z,96627.85
2019-03-15T08:22:41.975Z,96623.94
2019-03-15T08:23:32.889Z,96622.19
2019-03-15T08:24:24.058Z,96631.41
2019-03-15T08:25:14.655Z,96626.66
2019-03-15T08:26:05.862Z,96625.42
2019-03-15T08:26:56.126Z,96625.03
2019-03-15T08:27:46.885Z,96621.87
2019-03-15T08:28:37.993Z,96625.58
2019-03-15T08:29:28.594Z,96631.02
2019-03-15T08:30:19.008Z,96630.19
2019-03-15T08:31:10.379Z,96621.38
2019-03-15T08:32:00.464Z,96616.61
2019-03-15T08:32:51.251Z,96624.88
2019-03-15T08:33:42.248Z,96631.55
2019-03-15T08:34:32.435Z,96628.64
2019-03-15T08:35:24.469Z,96619.53
2019-03-15T08:36:13.451Z,96621.53
2019-03-15T08:37:03.814Z,96617.81
2019-03-15T08:37:54.151Z,96614.95
2019-03-15T08:38:47.774Z,96604.94
2019-03-15T08:39:34.489Z,96609.13
2019-03-15T08:40:26.103Z,96605.05
2019-03-15T08:41:16.195Z,96611.20
2019-03-15T08:42:06.767Z,96614.34
2019-03-15T08:42:57.452Z,96610.95
2019-03-15T08:43:48.721Z,96609.59
2019-03-15T08:44:39.552Z,96612.92
2019-03-15T08:45:30.929Z,96614.50
2019-03-15T08:46:21.787Z,96611.47
2019-03-15T08:47:12.539Z,96596.91
2019-03-15T08:48:03.323Z,96610.12
2019-03-15T08:48:53.940Z,96612.13
2019-03-15T08:49:44.641Z,96610.94
2019-03-15T08:50:35.740Z,96609.81
2019-03-15T08:51:26.355Z,96610.31
2019-03-15T08:52:17.567Z,96609.42
2019-03-15T08:53:08.299Z,96609.58
2019-03-15T08:53:58.770Z,96607.34
2019-03-15T08:54:49.110Z,96613.34
2019-03-15T08:55:40.170Z,96612.48
2019-03-15T08:56:30.793Z,96606.63
2019-03-15T08:57:21.889Z,96603.81
2019-03-15T08:58:14.549Z,96605.42
2019-03-15T08:59:02.605Z,96601.50
2019-03-15T08:59:57.473Z,96599.42
2019-03-15T09:00:43.704Z,96593.27
2019-03-15T09:01:34.377Z,96592.20
2019-03-15T09:02:24.704Z,96588.67
2019-03-15T09:03:27.282Z,96588.20
2019-03-15T09:04:06.532Z,96587.14
2019-03-15T09:04:56.963Z,96592.83
2019-03-15T09:05:47.529Z,96588.08
2019-03-15T09:06:40.914Z,96589.44
2019-03-15T09:07:29.267Z,96573.36
2019-03-15T09:08:20.198Z,96581.30
2019-03-15T09:09:10.494Z,96584.80
2019-03-15T09:10:03.374Z,96591.23
2019-03-15T09:10:51.899Z,96587.75
2019-03-15T09:11:41.867Z,96589.28
2019-03-15T09:12:32.404Z,96583.66
2019-03-15T09:13:22.520Z,96580.13
2019-03-15T09:14:12.902Z,96582.89
2019-03-15T09:15:03.712Z,96581.88
2019-03-15T09:15:54.811Z,96576.06
2019-03-15T09:16:44.920Z,96576.97
2019-03-15T09:17:38.049Z,96580.72
2019-03-15T09:18:28.731Z,96570.37
2019-03-15T09:19:19.527Z,96583.83
2019-03-15T09:20:09.994Z,96578.55
2019-03-15T09:21:00.185Z,96578.09
2019-03-15T09:21:51.445Z,96578.16
2019-03-15T09:22:43.262Z,96579.00
2019-03-15T09:23:33.343Z,96575.95
2019-03-15T09:24:23.717Z,96571.94
2019-03-15T09:25:19.772Z,96576.66
2019-03-15T09:26:06.746Z,96580.08
2019-03-15T09:26:57.533Z,96575.71
2019-03-15T09:27:48.364Z,96567.84
2019-03-15T09:28:39.624Z,96563.01
2019-03-15T09:29:29.644Z,96568.15
2019-03-15T09:30:24.510Z,96569.03
2019-03-15T09:31:11.073Z,96568.47
2019-03-15T09:32:08.683Z,96557.03
2019-03-15T09:32:52.332Z,96570.99
2019-03-15T09:33:42.765Z,96566.66
2019-03-15T09:34:34.129Z,96565.11
2019-03-15T09:35:24.821Z,96569.27
2019-03-15T09:36:15.096Z,96568.84
2019-03-15T09:37:06.012Z,96569.78
2019-03-15T09:37:56.583Z,96563.97
2019-03-15T09:38:47.823Z,96559.58
2019-03-15T09:39:38.675Z,96565.52
2019-03-15T09:40:29.174Z,96567.12
2019-03-15T09:41:31.019Z,96561.59
2019-03-15T09:42:10.685Z,96554.44
2019-03-15T09:43:00.828Z,96561.21
2019-03-15T09:43:51.070Z,96567.05
2019-03-15T09:44:42.358Z,96569.48
2019-03-15T09:45:34.109Z,96566.13
2019-03-15T09:46:24.479Z,96558.41
2019-03-15T09:47:15.203Z,96566.84
2019-03-15T09:48:05.965Z,96579.70
2019-03-15T09:48:55.963Z,96567.47
2019-03-15T09:49:46.845Z,96565.81
2019-03-15T09:50:50.473Z,96568.89
2019-03-15T09:51:27.201Z,96571.14
2019-03-15T09:52:17.879Z,96584.50
2019-03-15T09:53:08.080Z,96559.03
2019-03-15T09:53:59.233Z,96575.47
2019-03-15T09:54:49.145Z,96571.06